sensor_id;sensor_type;location;lat;lon;timestamp;pressure;altitude;pressure_sealevel;temperature;humidity
61814;BME280;57055;-35.296;149.168;2023-05-19T00:01:03;95357.70;;;4.14;55.27
61814;BME280;57055;-35.296;149.168;2023-05-19T00:03:33;95358.87;;;3.90;55.18
61814;BME280;57055;-35.296;149.168;2023-05-19T00:06:02;95358.10;;;3.98;55.20
61814;BME280;57055;-35.296;149.168;2023-05-19T00:08:34;95356.02;;;4.20;55.36
61814;BME280;57055;-35.296;149.168;2023-05-19T00:11:07;95348.38;;;4.20;55.03
61814;BME280;57055;-35.296;149.168;2023-05-19T00:13:36;95345.17;;;4.44;54.73
61814;BME280;57055;-35.296;149.168;2023-05-19T00:16:06;95342.03;;;4.47;54.47
61814;BME280;57055;-35.296;149.168;2023-05-19T00:18:34;95333.39;;;4.41;53.97
61814;BME280;57055;-35.296;149.168;2023-05-19T00:21:03;95335.02;;;4.61;53.84
61814;BME280;57055;-35.296;149.168;2023-05-19T00:23:32;95333.33;;;4.73;53.48
61814;BME280;57055;-35.296;149.168;2023-05-19T00:26:01;95323.67;;;4.66;52.98
61814;BME280;57055;-35.296;149.168;2023-05-19T00:28:30;95320.64;;;4.78;52.99
61814;BME280;57055;-35.296;149.168;2023-05-19T00:30:59;95316.29;;;5.03;52.63
61814;BME280;57055;-35.296;149.168;2023-05-19T00:33:28;95313.55;;;5.00;52.30
61814;BME280;57055;-35.296;149.168;2023-05-19T00:35:57;95311.27;;;5.40;52.22
61814;BME280;57055;-35.296;149.168;2023-05-19T00:38:25;95306.21;;;5.10;52.46
61814;BME280;57055;-35.296;149.168;2023-05-19T00:40:54;95302.75;;;5.21;51.14
61814;BME280;57055;-35.296;149.168;2023-05-19T00:43:23;95299.37;;;5.45;50.43
61814;BME280;57055;-35.296;149.168;2023-05-19T00:45:52;95295.09;;;5.39;50.10
61814;BME280;57055;-35.296;149.168;2023-05-19T00:48:21;95293.54;;;5.33;50.70
61814;BME280;57055;-35.296;149.168;2023-05-19T00:50:50;95287.72;;;5.37;50.67
61814;BME280;57055;-35.296;149.168;2023-05-19T00:53:20;95286.29;;;5.54;50.81
61814;BME280;57055;-35.296;149.168;2023-05-19T00:55:51;95281.46;;;5.73;50.85
61814;BME280;57055;-35.296;149.168;2023-05-19T00:58:19;95277.61;;;5.92;50.79
61814;BME280;57055;-35.296;149.168;2023-05-19T01:00:49;95271.47;;;6.00;50.34
61814;BME280;57055;-35.296;149.168;2023-05-19T01:03:17;95269.03;;;5.86;49.94
61814;BME280;57055;-35.296;149.168;2023-05-19T01:05:46;95265.30;;;5.81;50.34
61814;BME280;57055;-35.296;149.168;2023-05-19T01:08:15;95263.82;;;6.10;50.81
61814;BME280;57055;-35.296;149.168;2023-05-19T01:10:44;95257.02;;;6.08;50.81
61814;BME280;57055;-35.296;149.168;2023-05-19T01:13:13;95249.72;;;6.51;50.05
61814;BME280;57055;-35.296;149.168;2023-05-19T01:16:01;95242.72;;;6.34;49.40
61814;BME280;57055;-35.296;149.168;2023-05-19T01:18:39;95241.86;;;6.41;48.43
61814;BME280;57055;-35.296;149.168;2023-05-19T01:21:34;95239.00;;;6.60;47.43
61814;BME280;57055;-35.296;149.168;2023-05-19T01:24:21;95232.35;;;6.66;45.21
61814;BME280;57055;-35.296;149.168;2023-05-19T01:27:22;95231.08;;;6.93;44.43
61814;BME280;57055;-35.296;149.168;2023-05-19T01:30:16;95227.91;;;6.90;44.55
61814;BME280;57055;-35.296;149.168;2023-05-19T01:32:51;95225.55;;;6.95;44.57
61814;BME280;57055;-35.296;149.168;2023-05-19T01:35:23;95224.78;;;7.17;43.70
61814;BME280;57055;-35.296;149.168;2023-05-19T01:37:56;95226.46;;;7.37;43.20
61814;BME280;57055;-35.296;149.168;2023-05-19T01:40:25;95224.16;;;7.21;42.42
61814;BME280;57055;-35.296;149.168;2023-05-19T01:42:57;95223.37;;;7.21;42.66
61814;BME280;57055;-35.296;149.168;2023-05-19T01:45:29;95215.30;;;7.60;43.10
61814;BME280;57055;-35.296;149.168;2023-05-19T01:48:01;95213.56;;;7.32;43.10
61814;BME280;57055;-35.296;149.168;2023-05-19T01:50:31;95210.45;;;7.38;43.52
61814;BME280;57055;-35.296;149.168;2023-05-19T01:53:01;95202.37;;;7.28;43.83
61814;BME280;57055;-35.296;149.168;2023-05-19T01:55:29;95199.97;;;7.40;43.73
61814;BME280;57055;-35.296;149.168;2023-05-19T01:58:08;95194.57;;;7.48;43.63
61814;BME280;57055;-35.296;149.168;2023-05-19T02:00:50;95187.99;;;7.54;43.75
61814;BME280;57055;-35.296;149.168;2023-05-19T02:03:34;95180.88;;;7.72;43.83
61814;BME280;57055;-35.296;149.168;2023-05-19T02:06:19;95175.70;;;7.88;44.25
61814;BME280;57055;-35.296;149.168;2023-05-19T02:08:56;95166.23;;;7.92;44.06
61814;BME280;57055;-35.296;149.168;2023-05-19T02:11:36;95158.70;;;7.92;44.28
61814;BME280;57055;-35.296;149.168;2023-05-19T02:14:11;95153.27;;;8.10;44.45
61814;BME280;57055;-35.296;149.168;2023-05-19T02:16:44;95143.98;;;8.37;44.40
61814;BME280;57055;-35.296;149.168;2023-05-19T02:19:21;95140.30;;;8.41;43.90
61814;BME280;57055;-35.296;149.168;2023-05-19T02:21:51;95138.90;;;8.53;43.29
61814;BME280;57055;-35.296;149.168;2023-05-19T02:24:20;95137.49;;;8.57;43.29
61814;BME280;57055;-35.296;149.168;2023-05-19T02:26:50;95133.66;;;8.56;43.12
61814;BME280;57055;-35.296;149.168;2023-05-19T02:29:20;95130.93;;;8.61;43.26
61814;BME280;57055;-35.296;149.168;2023-05-19T02:31:49;95123.89;;;8.66;43.55
61814;BME280;57055;-35.296;149.168;2023-05-19T02:34:17;95114.77;;;8.79;43.61
61814;BME280;57055;-35.296;149.168;2023-05-19T02:36:46;95109.95;;;8.81;43.75
61814;BME280;57055;-35.296;149.168;2023-05-19T02:39:16;95103.94;;;8.69;44.67
61814;BME280;57055;-35.296;149.168;2023-05-19T02:41:45;95104.77;;;9.15;44.88
61814;BME280;57055;-35.296;149.168;2023-05-19T02:44:13;95104.08;;;9.13;45.09
61814;BME280;57055;-35.296;149.168;2023-05-19T02:46:42;95099.14;;;9.12;45.24
61814;BME280;57055;-35.296;149.168;2023-05-19T02:49:11;95093.51;;;8.99;45.23
61814;BME280;57055;-35.296;149.168;2023-05-19T02:51:40;95095.06;;;8.89;45.25
61814;BME280;57055;-35.296;149.168;2023-05-19T02:54:08;95092.48;;;8.94;45.20
61814;BME280;57055;-35.296;149.168;2023-05-19T02:56:37;95091.43;;;9.25;44.73
61814;BME280;57055;-35.296;149.168;2023-05-19T02:59:06;95086.99;;;9.05;44.38
61814;BME280;57055;-35.296;149.168;2023-05-19T03:01:34;95083.69;;;9.06;44.43
61814;BME280;57055;-35.296;149.168;2023-05-19T03:04:03;95084.42;;;9.56;44.41
61814;BME280;57055;-35.296;149.168;2023-05-19T03:06:32;95078.87;;;9.43;44.14
61814;BME280;57055;-35.296;149.168;2023-05-19T03:09:01;95070.86;;;9.19;44.76
61814;BME280;57055;-35.296;149.168;2023-05-19T03:11:30;95070.26;;;9.24;44.57
61814;BME280;57055;-35.296;149.168;2023-05-19T03:13:59;95071.50;;;9.20;44.97
61814;BME280;57055;-35.296;149.168;2023-05-19T03:16:28;95068.97;;;9.29;44.71
61814;BME280;57055;-35.296;149.168;2023-05-19T03:18:57;95068.00;;;9.24;45.15
61814;BME280;57055;-35.296;149.168;2023-05-19T03:21:25;95065.90;;;9.18;44.83
61814;BME280;57055;-35.296;149.168;2023-05-19T03:23:54;95065.86;;;9.49;45.14
61814;BME280;57055;-35.296;149.168;2023-05-19T03:26:23;95058.59;;;9.40;45.69
61814;BME280;57055;-35.296;149.168;2023-05-19T03:28:52;95056.02;;;9.45;45.82
61814;BME280;57055;-35.296;149.168;2023-05-19T03:31:21;95054.61;;;9.55;45.72
61814;BME280;57055;-35.296;149.168;2023-05-19T03:33:50;95054.45;;;9.51;45.97
61814;BME280;57055;-35.296;149.168;2023-05-19T03:36:19;95050.96;;;9.58;45.98
61814;BME280;57055;-35.296;149.168;2023-05-19T03:38:48;95049.74;;;9.26;45.87
61814;BME280;57055;-35.296;149.168;2023-05-19T03:41:17;95051.40;;;9.45;45.94
61814;BME280;57055;-35.296;149.168;2023-05-19T03:43:46;95043.84;;;9.39;46.21
61814;BME280;57055;-35.296;149.168;2023-05-19T03:46:15;95040.78;;;9.68;46.63
61814;BME280;57055;-35.296;149.168;2023-05-19T03:48:44;95039.63;;;9.54;46.58
61814;BME280;57055;-35.296;149.168;2023-05-19T03:51:13;95042.34;;;9.66;46.30
61814;BME280;57055;-35.296;149.168;2023-05-19T03:53:41;95036.43;;;9.57;46.39
61814;BME280;57055;-35.296;149.168;2023-05-19T03:56:10;95032.44;;;9.52;46.51
61814;BME280;57055;-35.296;149.168;2023-05-19T03:58:39;95028.55;;;9.36;46.89
61814;BME280;57055;-35.296;149.168;2023-05-19T04:01:08;95021.26;;;9.29;47.19
61814;BME280;57055;-35.296;149.168;2023-05-19T04:03:36;95025.04;;;9.39;47.25
61814;BME280;57055;-35.296;149.168;2023-05-19T04:06:05;95017.78;;;9.32;47.14
61814;BME280;57055;-35.296;149.168;2023-05-19T04:08:35;95016.76;;;9.51;48.38
61814;BME280;57055;-35.296;149.168;2023-05-19T04:11:04;95010.22;;;9.43;48.34
61814;BME280;57055;-35.296;149.168;2023-05-19T04:13:33;95009.80;;;9.34;47.49
61814;BME280;57055;-35.296;149.168;2023-05-19T04:16:03;95006.92;;;9.56;48.17
61814;BME280;57055;-35.296;149.168;2023-05-19T04:18:32;95003.46;;;9.50;47.61
61814;BME280;57055;-35.296;149.168;2023-05-19T04:21:01;95001.84;;;9.40;47.43
61814;BME280;57055;-35.296;149.168;2023-05-19T04:23:30;95002.98;;;9.32;47.49
61814;BME280;57055;-35.296;149.168;2023-05-19T04:25:59;94996.43;;;9.54;47.31
61814;BME280;57055;-35.296;149.168;2023-05-19T04:28:27;94994.53;;;9.54;46.86
61814;BME280;57055;-35.296;149.168;2023-05-19T04:30:56;94989.20;;;9.49;46.93
61814;BME280;57055;-35.296;149.168;2023-05-19T04:33:25;94988.27;;;9.61;47.24
61814;BME280;57055;-35.296;149.168;2023-05-19T04:35:53;94988.57;;;9.62;46.85
61814;BME280;57055;-35.296;149.168;2023-05-19T04:38:22;94990.91;;;9.57;46.86
61814;BME280;57055;-35.296;149.168;2023-05-19T04:40:51;94990.22;;;9.66;46.94
61814;BME280;57055;-35.296;149.168;2023-05-19T04:43:20;94989.46;;;9.59;46.81
61814;BME280;57055;-35.296;149.168;2023-05-19T04:45:48;94987.20;;;9.66;46.87
61814;BME280;57055;-35.296;149.168;2023-05-19T04:48:17;94983.98;;;9.67;46.77
61814;BME280;57055;-35.296;149.168;2023-05-19T04:50:46;94978.44;;;9.72;45.94
61814;BME280;57055;-35.296;149.168;2023-05-19T04:53:15;94975.14;;;9.57;46.10
61814;BME280;57055;-35.296;149.168;2023-05-19T04:55:43;94973.22;;;9.52;46.48
61814;BME280;57055;-35.296;149.168;2023-05-19T04:58:12;94973.51;;;9.73;46.34
61814;BME280;57055;-35.296;149.168;2023-05-19T05:00:41;94970.73;;;9.57;46.76
61814;BME280;57055;-35.296;149.168;2023-05-19T05:03:09;94972.82;;;9.62;46.02
61814;BME280;57055;-35.296;149.168;2023-05-19T05:05:38;94977.81;;;9.68;46.39
61814;BME280;57055;-35.296;149.168;2023-05-19T05:08:08;94974.64;;;9.72;45.85
61814;BME280;57055;-35.296;149.168;2023-05-19T05:10:37;94975.86;;;9.53;45.85
61814;BME280;57055;-35.296;149.168;2023-05-19T05:13:07;94972.26;;;9.61;45.89
61814;BME280;57055;-35.296;149.168;2023-05-19T05:15:36;94971.84;;;9.52;46.22
61814;BME280;57055;-35.296;149.168;2023-05-19T05:18:07;94976.54;;;9.50;46.24
61814;BME280;57055;-35.296;149.168;2023-05-19T05:20:37;94973.40;;;9.48;45.68
61814;BME280;57055;-35.296;149.168;2023-05-19T05:23:07;94970.54;;;9.34;45.98
61814;BME280;57055;-35.296;149.168;2023-05-19T05:25:36;94981.51;;;9.50;46.25
61814;BME280;57055;-35.296;149.168;2023-05-19T05:28:06;94977.67;;;9.26;46.07
61814;BME280;57055;-35.296;149.168;2023-05-19T05:30:34;94975.37;;;9.14;46.02
61814;BME280;57055;-35.296;149.168;2023-05-19T05:33:03;94978.84;;;9.19;46.29
61814;BME280;57055;-35.296;149.168;2023-05-19T05:35:32;94979.21;;;9.11;46.03
61814;BME280;57055;-35.296;149.168;2023-05-19T05:38:02;94981.22;;;9.15;46.00
61814;BME280;57055;-35.296;149.168;2023-05-19T05:40:31;94981.17;;;9.35;46.41
61814;BME280;57055;-35.296;149.168;2023-05-19T05:42:59;94981.00;;;9.32;46.26
61814;BME280;57055;-35.296;149.168;2023-05-19T05:45:28;94979.32;;;9.04;46.43
61814;BME280;57055;-35.296;149.168;2023-05-19T05:47:58;94976.13;;;9.46;45.82
61814;BME280;57055;-35.296;149.168;2023-05-19T05:50:27;94978.68;;;8.90;46.11
61814;BME280;57055;-35.296;149.168;2023-05-19T05:52:57;94977.41;;;9.07;46.35
61814;BME280;57055;-35.296;149.168;2023-05-19T05:55:29;94983.96;;;9.07;45.99
61814;BME280;57055;-35.296;149.168;2023-05-19T05:57:58;94984.07;;;9.34;45.91
61814;BME280;57055;-35.296;149.168;2023-05-19T06:00:27;94981.45;;;9.11;45.83
61814;BME280;57055;-35.296;149.168;2023-05-19T06:02:55;94984.61;;;9.10;46.05
61814;BME280;57055;-35.296;149.168;2023-05-19T06:05:24;94989.17;;;9.04;46.39
61814;BME280;57055;-35.296;149.168;2023-05-19T06:07:53;94988.94;;;9.21;46.08
61814;BME280;57055;-35.296;149.168;2023-05-19T06:10:22;94991.91;;;8.97;45.66
61814;BME280;57055;-35.296;149.168;2023-05-19T06:12:50;94988.56;;;8.85;45.98
61814;BME280;57055;-35.296;149.168;2023-05-19T06:15:20;94989.66;;;8.80;45.82
61814;BME280;57055;-35.296;149.168;2023-05-19T06:17:49;94990.57;;;8.71;45.90
61814;BME280;57055;-35.296;149.168;2023-05-19T06:20:18;94993.04;;;8.68;46.49
61814;BME280;57055;-35.296;149.168;2023-05-19T06:22:48;94992.03;;;8.86;46.31
61814;BME280;57055;-35.296;149.168;2023-05-19T06:25:17;94991.14;;;8.73;46.38
61814;BME280;57055;-35.296;149.168;2023-05-19T06:27:46;94988.67;;;8.78;46.52
61814;BME280;57055;-35.296;149.168;2023-05-19T06:30:14;94996.75;;;8.51;46.30
61814;BME280;57055;-35.296;149.168;2023-05-19T06:32:43;94991.25;;;8.63;46.74
61814;BME280;57055;-35.296;149.168;2023-05-19T06:35:12;94991.71;;;8.26;46.94
61814;BME280;57055;-35.296;149.168;2023-05-19T06:37:41;94997.07;;;8.44;46.84
61814;BME280;57055;-35.296;149.168;2023-05-19T06:40:11;95000.44;;;8.35;47.18
61814;BME280;57055;-35.296;149.168;2023-05-19T06:42:40;94999.34;;;8.05;47.28
61814;BME280;57055;-35.296;149.168;2023-05-19T06:45:09;95006.23;;;8.28;47.34
61814;BME280;57055;-35.296;149.168;2023-05-19T06:47:38;95008.77;;;8.22;47.44
61814;BME280;57055;-35.296;149.168;2023-05-19T06:50:08;95010.12;;;8.21;47.61
61814;BME280;57055;-35.296;149.168;2023-05-19T06:52:37;95010.64;;;8.14;47.95
61814;BME280;57055;-35.296;149.168;2023-05-19T06:55:07;95015.07;;;8.12;47.84
61814;BME280;57055;-35.296;149.168;2023-05-19T06:57:36;95019.31;;;8.01;48.10
61814;BME280;57055;-35.296;149.168;2023-05-19T07:00:06;95020.89;;;7.98;48.12
61814;BME280;57055;-35.296;149.168;2023-05-19T07:02:34;95023.90;;;7.80;48.48
61814;BME280;57055;-35.296;149.168;2023-05-19T07:05:03;95024.81;;;7.70;48.65
61814;BME280;57055;-35.296;149.168;2023-05-19T07:07:33;95027.70;;;7.63;48.80
61814;BME280;57055;-35.296;149.168;2023-05-19T07:10:02;95031.62;;;7.85;49.04
61814;BME280;57055;-35.296;149.168;2023-05-19T07:12:30;95033.61;;;7.84;49.01
61814;BME280;57055;-35.296;149.168;2023-05-19T07:14:59;95034.60;;;7.58;49.05
61814;BME280;57055;-35.296;149.168;2023-05-19T07:17:28;95031.21;;;7.78;49.14
61814;BME280;57055;-35.296;149.168;2023-05-19T07:19:58;95034.20;;;7.50;49.21
61814;BME280;57055;-35.296;149.168;2023-05-19T07:22:27;95033.30;;;7.39;49.44
61814;BME280;57055;-35.296;149.168;2023-05-19T07:24:57;95035.51;;;7.57;49.58
61814;BME280;57055;-35.296;149.168;2023-05-19T07:27:26;95035.91;;;7.33;49.61
61814;BME280;57055;-35.296;149.168;2023-05-19T07:29:54;95036.76;;;7.26;49.68
61814;BME280;57055;-35.296;149.168;2023-05-19T07:32:23;95036.96;;;7.64;49.64
61814;BME280;57055;-35.296;149.168;2023-05-19T07:34:52;95038.75;;;7.85;49.65
61814;BME280;57055;-35.296;149.168;2023-05-19T07:37:21;95039.67;;;7.32;49.74
61814;BME280;57055;-35.296;149.168;2023-05-19T07:39:56;95041.25;;;7.56;49.87
61814;BME280;57055;-35.296;149.168;2023-05-19T07:42:24;95042.45;;;7.52;49.79
61814;BME280;57055;-35.296;149.168;2023-05-19T07:44:53;95041.64;;;7.66;49.93
61814;BME280;57055;-35.296;149.168;2023-05-19T07:47:22;95043.38;;;7.60;50.15
61814;BME280;57055;-35.296;149.168;2023-05-19T07:49:50;95050.18;;;7.11;50.05
61814;BME280;57055;-35.296;149.168;2023-05-19T07:52:19;95055.19;;;7.38;50.17
61814;BME280;57055;-35.296;149.168;2023-05-19T07:54:48;95055.54;;;7.07;50.21
61814;BME280;57055;-35.296;149.168;2023-05-19T07:57:17;95052.65;;;7.26;50.40
61814;BME280;57055;-35.296;149.168;2023-05-19T07:59:46;95055.81;;;7.32;50.29
61814;BME280;57055;-35.296;149.168;2023-05-19T08:02:14;95059.19;;;7.33;50.27
61814;BME280;57055;-35.296;149.168;2023-05-19T08:04:43;95065.47;;;7.41;50.57
61814;BME280;57055;-35.296;149.168;2023-05-19T08:07:12;95068.04;;;7.16;50.58
61814;BME280;57055;-35.296;149.168;2023-05-19T08:09:41;95067.71;;;7.28;50.83
61814;BME280;57055;-35.296;149.168;2023-05-19T08:12:10;95071.18;;;7.27;50.91
61814;BME280;57055;-35.296;149.168;2023-05-19T08:14:38;95070.46;;;7.10;50.81
61814;BME280;57055;-35.296;149.168;2023-05-19T08:17:07;95075.13;;;6.99;50.98
61814;BME280;57055;-35.296;149.168;2023-05-19T08:19:36;95077.07;;;7.15;51.09
61814;BME280;57055;-35.296;149.168;2023-05-19T08:22:05;95084.03;;;7.07;51.40
61814;BME280;57055;-35.296;149.168;2023-05-19T08:24:34;95086.28;;;7.09;51.36
61814;BME280;57055;-35.296;149.168;2023-05-19T08:27:04;95087.47;;;6.86;51.30
61814;BME280;57055;-35.296;149.168;2023-05-19T08:29:33;95090.27;;;7.29;51.34
61814;BME280;57055;-35.296;149.168;2023-05-19T08:32:02;95094.97;;;7.04;51.45
61814;BME280;57055;-35.296;149.168;2023-05-19T08:34:30;95097.11;;;7.03;51.47
61814;BME280;57055;-35.296;149.168;2023-05-19T08:36:59;95102.67;;;7.03;51.53
61814;BME280;57055;-35.296;149.168;2023-05-19T08:39:28;95101.72;;;6.97;51.67
61814;BME280;57055;-35.296;149.168;2023-05-19T08:41:57;95103.36;;;6.92;51.80
61814;BME280;57055;-35.296;149.168;2023-05-19T08:44:26;95106.18;;;6.98;51.68
61814;BME280;57055;-35.296;149.168;2023-05-19T08:46:55;95108.30;;;6.91;51.81
61814;BME280;57055;-35.296;149.168;2023-05-19T08:49:27;95113.35;;;6.83;52.00
61814;BME280;57055;-35.296;149.168;2023-05-19T08:52:05;95112.66;;;6.76;52.11
61814;BME280;57055;-35.296;149.168;2023-05-19T08:54:40;95117.73;;;6.78;52.10
61814;BME280;57055;-35.296;149.168;2023-05-19T08:57:12;95123.68;;;6.97;52.18
61814;BME280;57055;-35.296;149.168;2023-05-19T08:59:43;95121.76;;;6.69;52.22
61814;BME280;57055;-35.296;149.168;2023-05-19T09:02:14;95122.02;;;6.82;52.37
61814;BME280;57055;-35.296;149.168;2023-05-19T09:04:43;95122.20;;;6.68;52.24
61814;BME280;57055;-35.296;149.168;2023-05-19T09:07:14;95128.24;;;6.60;52.45
61814;BME280;57055;-35.296;149.168;2023-05-19T09:09:43;95132.19;;;6.75;52.60
61814;BME280;57055;-35.296;149.168;2023-05-19T09:12:13;95138.47;;;6.70;52.64
61814;BME280;57055;-35.296;149.168;2023-05-19T09:14:42;95140.29;;;6.48;52.64
61814;BME280;57055;-35.296;149.168;2023-05-19T09:17:11;95143.35;;;6.71;52.62
61814;BME280;57055;-35.296;149.168;2023-05-19T09:19:43;95145.42;;;6.45;53.04
61814;BME280;57055;-35.296;149.168;2023-05-19T09:22:15;95146.07;;;6.18;53.38
61814;BME280;57055;-35.296;149.168;2023-05-19T09:24:44;95151.95;;;6.00;53.76
61814;BME280;57055;-35.296;149.168;2023-05-19T09:27:17;95150.92;;;6.00;53.74
61814;BME280;57055;-35.296;149.168;2023-05-19T09:29:49;95153.03;;;5.87;53.88
61814;BME280;57055;-35.296;149.168;2023-05-19T09:32:25;95154.19;;;5.73;54.18
61814;BME280;57055;-35.296;149.168;2023-05-19T09:34:55;95156.20;;;5.97;54.41
61814;BME280;57055;-35.296;149.168;2023-05-19T09:37:24;95159.21;;;5.70;54.11
61814;BME280;57055;-35.296;149.168;2023-05-19T09:39:55;95160.12;;;5.77;54.18
61814;BME280;57055;-35.296;149.168;2023-05-19T09:42:25;95158.74;;;5.63;54.43
61814;BME280;57055;-35.296;149.168;2023-05-19T09:44:59;95161.02;;;5.47;54.53
61814;BME280;57055;-35.296;149.168;2023-05-19T09:47:33;95166.43;;;5.55;54.60
61814;BME280;57055;-35.296;149.168;2023-05-19T09:50:02;95166.64;;;5.24;54.67
61814;BME280;57055;-35.296;149.168;2023-05-19T09:52:35;95170.08;;;5.18;54.93
61814;BME280;57055;-35.296;149.168;2023-05-19T09:55:08;95174.34;;;5.15;54.90
61814;BME280;57055;-35.296;149.168;2023-05-19T09:57:37;95177.73;;;5.18;54.79
61814;BME280;57055;-35.296;149.168;2023-05-19T10:00:08;95178.36;;;5.22;54.69
61814;BME280;57055;-35.296;149.168;2023-05-19T10:02:37;95178.80;;;5.25;54.78
61814;BME280;57055;-35.296;149.168;2023-05-19T10:05:11;95179.06;;;5.03;54.89
61814;BME280;57055;-35.296;149.168;2023-05-19T10:07:41;95176.86;;;5.24;55.50
61814;BME280;57055;-35.296;149.168;2023-05-19T10:10:11;95177.90;;;4.69;55.77
61814;BME280;57055;-35.296;149.168;2023-05-19T10:12:41;95177.72;;;4.69;55.65
61814;BME280;57055;-35.296;149.168;2023-05-19T10:15:11;95177.31;;;5.18;55.65
61814;BME280;57055;-35.296;149.168;2023-05-19T10:17:43;95177.91;;;5.14;55.93
61814;BME280;57055;-35.296;149.168;2023-05-19T10:20:13;95188.10;;;4.91;55.77
61814;BME280;57055;-35.296;149.168;2023-05-19T10:22:44;95189.04;;;4.82;55.97
61814;BME280;57055;-35.296;149.168;2023-05-19T10:25:15;95194.78;;;5.07;56.12
61814;BME280;57055;-35.296;149.168;2023-05-19T10:27:48;95192.39;;;4.70;56.14
61814;BME280;57055;-35.296;149.168;2023-05-19T10:30:24;95193.47;;;4.81;56.44
61814;BME280;57055;-35.296;149.168;2023-05-19T10:33:02;95191.76;;;4.88;56.15
61814;BME280;57055;-35.296;149.168;2023-05-19T10:35:50;95193.67;;;4.76;56.52
61814;BME280;57055;-35.296;149.168;2023-05-19T10:38:30;95192.74;;;4.76;56.75
61814;BME280;57055;-35.296;149.168;2023-05-19T10:41:06;95195.17;;;4.65;56.73
61814;BME280;57055;-35.296;149.168;2023-05-19T10:43:52;95204.46;;;4.66;56.69
61814;BME280;57055;-35.296;149.168;2023-05-19T10:46:24;95200.59;;;4.68;56.65
61814;BME280;57055;-35.296;149.168;2023-05-19T10:48:54;95197.08;;;4.69;56.61
61814;BME280;57055;-35.296;149.168;2023-05-19T10:51:30;95200.98;;;4.81;56.79
61814;BME280;57055;-35.296;149.168;2023-05-19T10:54:02;95203.53;;;4.57;56.51
61814;BME280;57055;-35.296;149.168;2023-05-19T10:56:32;95206.43;;;4.25;56.60
61814;BME280;57055;-35.296;149.168;2023-05-19T10:59:02;95206.11;;;4.47;56.90
61814;BME280;57055;-35.296;149.168;2023-05-19T11:01:33;95207.36;;;4.64;57.06
61814;BME280;57055;-35.296;149.168;2023-05-19T11:04:07;95204.11;;;4.33;56.98
61814;BME280;57055;-35.296;149.168;2023-05-19T11:06:37;95205.06;;;4.35;56.96
61814;BME280;57055;-35.296;149.168;2023-05-19T11:09:14;95205.29;;;4.36;56.70
61814;BME280;57055;-35.296;149.168;2023-05-19T11:11:47;95208.99;;;4.33;56.68
61814;BME280;57055;-35.296;149.168;2023-05-19T11:14:19;95214.73;;;4.24;56.94
61814;BME280;57055;-35.296;149.168;2023-05-19T11:16:48;95218.19;;;4.21;57.05
61814;BME280;57055;-35.296;149.168;2023-05-19T11:19:19;95218.00;;;4.10;57.17
61814;BME280;57055;-35.296;149.168;2023-05-19T11:21:53;95215.86;;;4.22;57.67
61814;BME280;57055;-35.296;149.168;2023-05-19T11:24:39;95212.69;;;4.20;57.54
61814;BME280;57055;-35.296;149.168;2023-05-19T11:27:24;95210.05;;;3.97;57.80
61814;BME280;57055;-35.296;149.168;2023-05-19T11:29:55;95211.17;;;3.99;57.62
61814;BME280;57055;-35.296;149.168;2023-05-19T11:32:27;95212.81;;;4.03;57.53
61814;BME280;57055;-35.296;149.168;2023-05-19T11:34:57;95211.23;;;4.36;57.46
61814;BME280;57055;-35.296;149.168;2023-05-19T11:37:26;95210.55;;;4.32;57.24
61814;BME280;57055;-35.296;149.168;2023-05-19T11:39:56;95214.16;;;4.06;57.36
61814;BME280;57055;-35.296;149.168;2023-05-19T11:42:25;95208.18;;;3.95;57.24
61814;BME280;57055;-35.296;149.168;2023-05-19T11:44:55;95208.72;;;4.21;57.09
61814;BME280;57055;-35.296;149.168;2023-05-19T11:47:25;95207.53;;;4.17;57.17
61814;BME280;57055;-35.296;149.168;2023-05-19T11:49:55;95203.88;;;4.03;57.25
61814;BME280;57055;-35.296;149.168;2023-05-19T11:52:25;95203.42;;;3.66;57.38
61814;BME280;57055;-35.296;149.168;2023-05-19T11:54:54;95203.63;;;3.92;57.24
61814;BME280;57055;-35.296;149.168;2023-05-19T11:57:23;95204.27;;;4.00;57.25
61814;BME280;57055;-35.296;149.168;2023-05-19T11:59:52;95203.03;;;3.97;57.27
61814;BME280;57055;-35.296;149.168;2023-05-19T12:02:22;95204.36;;;3.71;57.39
61814;BME280;57055;-35.296;149.168;2023-05-19T12:04:52;95207.13;;;3.94;57.24
61814;BME280;57055;-35.296;149.168;2023-05-19T12:07:23;95209.09;;;3.92;57.27
61814;BME280;57055;-35.296;149.168;2023-05-19T12:09:53;95212.63;;;3.93;57.21
61814;BME280;57055;-35.296;149.168;2023-05-19T12:12:22;95215.41;;;3.93;57.30
61814;BME280;57055;-35.296;149.168;2023-05-19T12:14:52;95212.83;;;3.97;57.06
61814;BME280;57055;-35.296;149.168;2023-05-19T12:17:22;95212.60;;;3.93;57.40
61814;BME280;57055;-35.296;149.168;2023-05-19T12:19:51;95212.10;;;3.73;57.19
61814;BME280;57055;-35.296;149.168;2023-05-19T12:22:19;95214.47;;;3.87;57.38
61814;BME280;57055;-35.296;149.168;2023-05-19T12:24:49;95212.71;;;3.82;57.63
61814;BME280;57055;-35.296;149.168;2023-05-19T12:27:21;95210.04;;;4.00;57.55
61814;BME280;57055;-35.296;149.168;2023-05-19T12:29:52;95208.74;;;3.62;57.74
61814;BME280;57055;-35.296;149.168;2023-05-19T12:32:24;95207.06;;;3.85;57.40
61814;BME280;57055;-35.296;149.168;2023-05-19T12:34:54;95206.48;;;3.50;57.39
61814;BME280;57055;-35.296;149.168;2023-05-19T12:37:26;95206.13;;;3.60;57.23
61814;BME280;57055;-35.296;149.168;2023-05-19T12:39:56;95207.26;;;3.72;57.07
61814;BME280;57055;-35.296;149.168;2023-05-19T12:42:29;95202.89;;;3.64;57.01
61814;BME280;57055;-35.296;149.168;2023-05-19T12:44:59;95198.12;;;3.61;57.23
61814;BME280;57055;-35.296;149.168;2023-05-19T12:47:31;95196.00;;;3.57;56.98
61814;BME280;57055;-35.296;149.168;2023-05-19T12:50:03;95197.48;;;3.59;56.74
61814;BME280;57055;-35.296;149.168;2023-05-19T12:52:41;95193.81;;;3.57;56.79
61814;BME280;57055;-35.296;149.168;2023-05-19T12:55:13;95192.44;;;3.55;56.60
61814;BME280;57055;-35.296;149.168;2023-05-19T12:57:43;95189.24;;;3.42;56.77